sensor_id;sensor_type;location;lat;lon;timestamp;P1;durP1;ratioP1;P2;durP2;ratioP2
64789;SDS011;51223;51.816;5.862;2022-08-01T00:01:25;10.52;;;3.40;;
64789;SDS011;51223;51.816;5.862;2022-08-01T00:03:50;4.13;;;2.55;;
64789;SDS011;51223;51.816;5.862;2022-08-01T00:06:16;2.80;;;1.73;;
64789;SDS011;51223;51.816;5.862;2022-08-01T00:08:42;3.80;;;2.50;;
64789;SDS011;51223;51.816;5.862;2022-08-01T00:11:08;5.90;;;2.60;;
64789;SDS011;51223;51.816;5.862;2022-08-01T00:13:34;5.43;;;2.38;;
64789;SDS011;51223;51.816;5.862;2022-08-01T00:16:00;6.55;;;3.20;;
64789;SDS011;51223;51.816;5.862;2022-08-01T00:18:26;3.90;;;2.05;;
64789;SDS011;51223;51.816;5.862;2022-08-01T00:20:52;4.47;;;2.35;;
64789;SDS011;51223;51.816;5.862;2022-08-01T00:23:18;6.40;;;2.85;;
64789;SDS011;51223;51.816;5.862;2022-08-01T00:25:44;4.95;;;3.05;;
64789;SDS011;51223;51.816;5.862;2022-08-01T00:28:10;4.40;;;2.42;;
64789;SDS011;51223;51.816;5.862;2022-08-01T00:30:36;4.32;;;1.77;;
64789;SDS011;51223;51.816;5.862;2022-08-01T00:33:04;3.88;;;2.17;;
64789;SDS011;51223;51.816;5.862;2022-08-01T00:35:33;4.43;;;2.70;;
64789;SDS011;51223;51.816;5.862;2022-08-01T00:37:58;5.97;;;2.55;;
64789;SDS011;51223;51.816;5.862;2022-08-01T00:40:27;5.03;;;2.35;;
64789;SDS011;51223;51.816;5.862;2022-08-01T00:42:55;6.43;;;2.90;;
64789;SDS011;51223;51.816;5.862;2022-08-01T00:45:21;4.70;;;2.28;;
64789;SDS011;51223;51.816;5.862;2022-08-01T00:47:47;4.10;;;2.17;;
64789;SDS011;51223;51.816;5.862;2022-08-01T00:50:12;3.17;;;1.73;;
64789;SDS011;51223;51.816;5.862;2022-08-01T00:52:39;3.75;;;2.53;;
64789;SDS011;51223;51.816;5.862;2022-08-01T00:55:05;4.13;;;2.50;;
64789;SDS011;51223;51.816;5.862;2022-08-01T00:57:34;3.63;;;2.30;;
64789;SDS011;51223;51.816;5.862;2022-08-01T01:00:00;6.72;;;2.63;;
64789;SDS011;51223;51.816;5.862;2022-08-01T01:02:26;2.28;;;1.65;;
64789;SDS011;51223;51.816;5.862;2022-08-01T01:04:52;6.07;;;2.58;;
64789;SDS011;51223;51.816;5.862;2022-08-01T01:10:25;3.92;;;2.55;;
64789;SDS011;51223;51.816;5.862;2022-08-01T01:16:10;5.32;;;2.33;;
64789;SDS011;51223;51.816;5.862;2022-08-01T01:18:53;4.80;;;2.25;;
64789;SDS011;51223;51.816;5.862;2022-08-01T01:29:31;5.45;;;2.70;;
64789;SDS011;51223;51.816;5.862;2022-08-01T01:32:04;3.55;;;1.92;;
64789;SDS011;51223;51.816;5.862;2022-08-01T01:34:34;5.78;;;2.75;;
64789;SDS011;51223;51.816;5.862;2022-08-01T01:37:06;4.30;;;2.45;;
64789;SDS011;51223;51.816;5.862;2022-08-01T01:39:34;7.07;;;2.67;;
64789;SDS011;51223;51.816;5.862;2022-08-01T01:42:02;4.63;;;2.80;;
64789;SDS011;51223;51.816;5.862;2022-08-01T01:44:31;4.00;;;2.45;;
64789;SDS011;51223;51.816;5.862;2022-08-01T01:46:57;6.25;;;2.70;;
64789;SDS011;51223;51.816;5.862;2022-08-01T01:49:25;3.80;;;2.05;;
64789;SDS011;51223;51.816;5.862;2022-08-01T01:51:54;3.63;;;2.15;;
64789;SDS011;51223;51.816;5.862;2022-08-01T01:54:22;8.35;;;2.88;;
64789;SDS011;51223;51.816;5.862;2022-08-01T01:56:50;3.65;;;2.33;;
64789;SDS011;51223;51.816;5.862;2022-08-01T01:59:20;3.72;;;2.13;;
64789;SDS011;51223;51.816;5.862;2022-08-01T02:01:49;4.97;;;2.17;;
64789;SDS011;51223;51.816;5.862;2022-08-01T02:04:18;5.57;;;2.65;;
64789;SDS011;51223;51.816;5.862;2022-08-01T02:06:46;4.85;;;2.65;;
64789;SDS011;51223;51.816;5.862;2022-08-01T02:09:19;5.18;;;2.97;;
64789;SDS011;51223;51.816;5.862;2022-08-01T02:11:49;3.97;;;2.20;;
64789;SDS011;51223;51.816;5.862;2022-08-01T02:14:19;5.55;;;3.13;;
64789;SDS011;51223;51.816;5.862;2022-08-01T02:16:47;5.38;;;2.67;;
64789;SDS011;51223;51.816;5.862;2022-08-01T02:19:16;4.13;;;2.85;;
64789;SDS011;51223;51.816;5.862;2022-08-01T02:24:49;4.82;;;2.65;;
64789;SDS011;51223;51.816;5.862;2022-08-01T02:27:12;2.63;;;1.67;;
64789;SDS011;51223;51.816;5.862;2022-08-01T02:29:43;5.47;;;2.75;;
64789;SDS011;51223;51.816;5.862;2022-08-01T02:32:17;4.70;;;2.58;;
64789;SDS011;51223;51.816;5.862;2022-08-01T02:34:49;2.55;;;1.73;;
64789;SDS011;51223;51.816;5.862;2022-08-01T02:37:17;3.75;;;2.42;;
64789;SDS011;51223;51.816;5.862;2022-08-01T02:39:47;3.97;;;2.40;;
64789;SDS011;51223;51.816;5.862;2022-08-01T02:42:16;4.70;;;1.88;;
64789;SDS011;51223;51.816;5.862;2022-08-01T02:44:44;3.30;;;1.67;;
64789;SDS011;51223;51.816;5.862;2022-08-01T02:47:12;7.18;;;3.35;;
64789;SDS011;51223;51.816;5.862;2022-08-01T02:49:39;5.15;;;2.75;;
64789;SDS011;51223;51.816;5.862;2022-08-01T02:52:16;5.53;;;2.67;;
64789;SDS011;51223;51.816;5.862;2022-08-01T02:54:43;4.88;;;2.63;;
64789;SDS011;51223;51.816;5.862;2022-08-01T02:57:11;6.85;;;3.20;;
64789;SDS011;51223;51.816;5.862;2022-08-01T02:59:41;4.97;;;2.40;;
64789;SDS011;51223;51.816;5.862;2022-08-01T03:02:08;5.03;;;3.13;;
64789;SDS011;51223;51.816;5.862;2022-08-01T03:04:36;7.80;;;2.92;;
64789;SDS011;51223;51.816;5.862;2022-08-01T03:07:04;9.30;;;2.85;;
64789;SDS011;51223;51.816;5.862;2022-08-01T03:09:34;3.63;;;2.08;;
64789;SDS011;51223;51.816;5.862;2022-08-01T03:12:04;3.95;;;2.13;;
64789;SDS011;51223;51.816;5.862;2022-08-01T03:14:35;4.53;;;2.58;;
64789;SDS011;51223;51.816;5.862;2022-08-01T03:17:05;10.02;;;2.75;;
64789;SDS011;51223;51.816;5.862;2022-08-01T03:19:33;4.30;;;2.30;;
64789;SDS011;51223;51.816;5.862;2022-08-01T03:22:01;6.90;;;2.92;;
64789;SDS011;51223;51.816;5.862;2022-08-01T03:24:31;5.93;;;3.17;;
64789;SDS011;51223;51.816;5.862;2022-08-01T03:26:59;4.70;;;2.50;;
64789;SDS011;51223;51.816;5.862;2022-08-01T03:29:26;3.95;;;2.00;;
64789;SDS011;51223;51.816;5.862;2022-08-01T03:31:53;5.55;;;2.92;;
64789;SDS011;51223;51.816;5.862;2022-08-01T03:34:20;7.45;;;2.10;;
64789;SDS011;51223;51.816;5.862;2022-08-01T03:36:48;4.85;;;2.10;;
64789;SDS011;51223;51.816;5.862;2022-08-01T03:39:18;4.40;;;2.00;;
64789;SDS011;51223;51.816;5.862;2022-08-01T03:41:53;3.75;;;2.40;;
64789;SDS011;51223;51.816;5.862;2022-08-01T03:44:24;7.15;;;3.15;;
64789;SDS011;51223;51.816;5.862;2022-08-01T03:46:59;5.75;;;2.60;;
64789;SDS011;51223;51.816;5.862;2022-08-01T03:49:30;6.53;;;2.72;;
64789;SDS011;51223;51.816;5.862;2022-08-01T03:51:58;4.85;;;2.75;;
64789;SDS011;51223;51.816;5.862;2022-08-01T03:54:28;4.00;;;1.77;;
64789;SDS011;51223;51.816;5.862;2022-08-01T03:56:58;7.03;;;3.17;;
64789;SDS011;51223;51.816;5.862;2022-08-01T03:59:24;4.22;;;2.45;;
64789;SDS011;51223;51.816;5.862;2022-08-01T04:01:50;4.45;;;2.90;;
64789;SDS011;51223;51.816;5.862;2022-08-01T04:04:16;5.90;;;2.83;;
64789;SDS011;51223;51.816;5.862;2022-08-01T04:06:42;5.82;;;2.80;;
64789;SDS011;51223;51.816;5.862;2022-08-01T04:09:11;4.15;;;2.55;;
64789;SDS011;51223;51.816;5.862;2022-08-01T04:11:40;5.22;;;3.03;;
64789;SDS011;51223;51.816;5.862;2022-08-01T04:14:06;9.50;;;2.42;;
64789;SDS011;51223;51.816;5.862;2022-08-01T04:16:32;4.53;;;2.60;;
64789;SDS011;51223;51.816;5.862;2022-08-01T04:18:58;7.78;;;2.75;;
64789;SDS011;51223;51.816;5.862;2022-08-01T04:21:25;4.47;;;2.55;;
64789;SDS011;51223;51.816;5.862;2022-08-01T04:23:58;6.25;;;2.58;;
64789;SDS011;51223;51.816;5.862;2022-08-01T04:26:28;4.95;;;2.85;;
64789;SDS011;51223;51.816;5.862;2022-08-01T04:28:57;8.35;;;2.30;;
64789;SDS011;51223;51.816;5.862;2022-08-01T04:31:25;7.35;;;2.90;;
64789;SDS011;51223;51.816;5.862;2022-08-01T04:33:55;5.18;;;2.70;;
64789;SDS011;51223;51.816;5.862;2022-08-01T04:36:27;3.55;;;2.03;;
64789;SDS011;51223;51.816;5.862;2022-08-01T04:38:58;4.70;;;2.60;;
64789;SDS011;51223;51.816;5.862;2022-08-01T04:41:29;4.20;;;2.15;;
64789;SDS011;51223;51.816;5.862;2022-08-01T04:43:57;3.75;;;1.85;;
64789;SDS011;51223;51.816;5.862;2022-08-01T04:46:24;5.18;;;3.08;;
64789;SDS011;51223;51.816;5.862;2022-08-01T04:48:51;3.17;;;1.98;;
64789;SDS011;51223;51.816;5.862;2022-08-01T04:51:18;6.50;;;3.22;;
64789;SDS011;51223;51.816;5.862;2022-08-01T04:53:48;9.00;;;3.88;;
64789;SDS011;51223;51.816;5.862;2022-08-01T04:56:20;5.22;;;2.50;;
64789;SDS011;51223;51.816;5.862;2022-08-01T04:58:48;6.63;;;3.28;;
64789;SDS011;51223;51.816;5.862;2022-08-01T05:01:37;4.03;;;1.92;;
64789;SDS011;51223;51.816;5.862;2022-08-01T05:04:05;2.90;;;1.92;;
64789;SDS011;51223;51.816;5.862;2022-08-01T05:06:31;3.30;;;1.73;;
64789;SDS011;51223;51.816;5.862;2022-08-01T05:09:00;6.75;;;2.50;;
64789;SDS011;51223;51.816;5.862;2022-08-01T05:11:25;6.15;;;3.05;;
64789;SDS011;51223;51.816;5.862;2022-08-01T05:14:11;6.20;;;2.28;;
64789;SDS011;51223;51.816;5.862;2022-08-01T05:16:37;3.97;;;2.38;;
64789;SDS011;51223;51.816;5.862;2022-08-01T05:19:03;4.07;;;2.60;;
64789;SDS011;51223;51.816;5.862;2022-08-01T05:21:29;2.70;;;1.58;;
64789;SDS011;51223;51.816;5.862;2022-08-01T05:23:57;4.32;;;2.15;;
64789;SDS011;51223;51.816;5.862;2022-08-01T05:26:32;4.80;;;2.60;;
64789;SDS011;51223;51.816;5.862;2022-08-01T05:29:26;5.03;;;2.72;;
64789;SDS011;51223;51.816;5.862;2022-08-01T05:32:05;3.87;;;2.13;;
64789;SDS011;51223;51.816;5.862;2022-08-01T05:34:37;7.53;;;2.35;;
64789;SDS011;51223;51.816;5.862;2022-08-01T05:37:03;4.05;;;1.55;;
64789;SDS011;51223;51.816;5.862;2022-08-01T05:39:29;5.15;;;2.72;;
64789;SDS011;51223;51.816;5.862;2022-08-01T05:41:55;3.10;;;2.10;;
64789;SDS011;51223;51.816;5.862;2022-08-01T05:44:21;2.47;;;0.98;;
64789;SDS011;51223;51.816;5.862;2022-08-01T05:46:55;3.03;;;1.88;;
64789;SDS011;51223;51.816;5.862;2022-08-01T05:49:38;5.13;;;2.63;;
64789;SDS011;51223;51.816;5.862;2022-08-01T05:52:06;3.42;;;1.88;;
64789;SDS011;51223;51.816;5.862;2022-08-01T05:54:39;4.03;;;2.30;;
64789;SDS011;51223;51.816;5.862;2022-08-01T05:57:13;3.33;;;1.92;;
64789;SDS011;51223;51.816;5.862;2022-08-01T05:59:38;3.83;;;1.30;;
64789;SDS011;51223;51.816;5.862;2022-08-01T06:02:04;1.25;;;1.02;;
64789;SDS011;51223;51.816;5.862;2022-08-01T06:04:33;5.00;;;1.90;;
64789;SDS011;51223;51.816;5.862;2022-08-01T06:06:59;0.73;;;0.73;;
64789;SDS011;51223;51.816;5.862;2022-08-01T06:09:25;2.88;;;1.65;;
64789;SDS011;51223;51.816;5.862;2022-08-01T06:11:51;2.22;;;1.45;;
64789;SDS011;51223;51.816;5.862;2022-08-01T06:14:24;0.52;;;0.52;;
64789;SDS011;51223;51.816;5.862;2022-08-01T06:16:52;0.40;;;0.40;;
64789;SDS011;51223;51.816;5.862;2022-08-01T06:19:25;2.70;;;1.30;;
64789;SDS011;51223;51.816;5.862;2022-08-01T06:21:54;3.38;;;1.77;;
64789;SDS011;51223;51.816;5.862;2022-08-01T06:24:22;2.00;;;1.38;;
64789;SDS011;51223;51.816;5.862;2022-08-01T06:26:49;2.17;;;1.23;;
64789;SDS011;51223;51.816;5.862;2022-08-01T06:29:15;2.00;;;1.27;;
64789;SDS011;51223;51.816;5.862;2022-08-01T06:31:41;1.88;;;1.17;;
64789;SDS011;51223;51.816;5.862;2022-08-01T06:34:21;3.90;;;1.58;;
64789;SDS011;51223;51.816;5.862;2022-08-01T06:36:48;1.23;;;0.90;;
64789;SDS011;51223;51.816;5.862;2022-08-01T06:39:23;0.50;;;0.50;;
64789;SDS011;51223;51.816;5.862;2022-08-01T06:42:15;0.70;;;0.70;;
64789;SDS011;51223;51.816;5.862;2022-08-01T06:44:41;0.55;;;0.55;;
64789;SDS011;51223;51.816;5.862;2022-08-01T06:47:06;1.50;;;1.10;;
64789;SDS011;51223;51.816;5.862;2022-08-01T06:49:53;5.40;;;1.30;;
64789;SDS011;51223;51.816;5.862;2022-08-01T06:52:25;2.37;;;1.10;;
64789;SDS011;51223;51.816;5.862;2022-08-01T06:55:06;1.40;;;0.77;;
64789;SDS011;51223;51.816;5.862;2022-08-01T07:00:54;0.80;;;0.73;;
64789;SDS011;51223;51.816;5.862;2022-08-01T07:03:23;0.50;;;0.47;;
64789;SDS011;51223;51.816;5.862;2022-08-01T07:05:49;0.57;;;0.57;;
64789;SDS011;51223;51.816;5.862;2022-08-01T07:08:15;0.85;;;0.82;;
64789;SDS011;51223;51.816;5.862;2022-08-01T07:10:44;1.38;;;1.00;;
64789;SDS011;51223;51.816;5.862;2022-08-01T07:13:09;1.05;;;0.47;;
64789;SDS011;51223;51.816;5.862;2022-08-01T07:15:37;0.40;;;0.40;;
64789;SDS011;51223;51.816;5.862;2022-08-01T07:18:03;0.73;;;0.50;;
64789;SDS011;51223;51.816;5.862;2022-08-01T07:20:30;0.75;;;0.63;;
64789;SDS011;51223;51.816;5.862;2022-08-01T07:22:58;1.00;;;0.65;;
64789;SDS011;51223;51.816;5.862;2022-08-01T07:25:27;1.27;;;0.65;;
64789;SDS011;51223;51.816;5.862;2022-08-01T07:27:58;0.80;;;0.65;;
64789;SDS011;51223;51.816;5.862;2022-08-01T07:30:24;0.63;;;0.50;;
64789;SDS011;51223;51.816;5.862;2022-08-01T07:32:51;0.52;;;0.50;;
64789;SDS011;51223;51.816;5.862;2022-08-01T07:35:25;0.95;;;0.70;;
64789;SDS011;51223;51.816;5.862;2022-08-01T07:37:57;1.60;;;0.60;;
64789;SDS011;51223;51.816;5.862;2022-08-01T07:40:28;1.05;;;0.65;;
64789;SDS011;51223;51.816;5.862;2022-08-01T07:42:54;0.70;;;0.55;;
64789;SDS011;51223;51.816;5.862;2022-08-01T07:45:25;0.50;;;0.50;;
64789;SDS011;51223;51.816;5.862;2022-08-01T07:47:55;0.93;;;0.50;;
64789;SDS011;51223;51.816;5.862;2022-08-01T07:50:20;1.73;;;0.60;;
64789;SDS011;51223;51.816;5.862;2022-08-01T07:52:46;0.38;;;0.38;;
64789;SDS011;51223;51.816;5.862;2022-08-01T07:55:15;0.85;;;0.73;;
64789;SDS011;51223;51.816;5.862;2022-08-01T07:57:47;0.20;;;0.20;;
64789;SDS011;51223;51.816;5.862;2022-08-01T08:00:13;0.52;;;0.45;;
64789;SDS011;51223;51.816;5.862;2022-08-01T08:02:47;0.50;;;0.50;;
64789;SDS011;51223;51.816;5.862;2022-08-01T08:05:20;0.40;;;0.40;;
64789;SDS011;51223;51.816;5.862;2022-08-01T08:07:49;0.50;;;0.50;;
64789;SDS011;51223;51.816;5.862;2022-08-01T08:10:15;0.40;;;0.40;;
64789;SDS011;51223;51.816;5.862;2022-08-01T08:12:41;1.27;;;1.17;;
64789;SDS011;51223;51.816;5.862;2022-08-01T08:15:07;0.40;;;0.40;;
64789;SDS011;51223;51.816;5.862;2022-08-01T08:17:33;2.05;;;0.38;;
64789;SDS011;51223;51.816;5.862;2022-08-01T08:20:06;0.75;;;0.40;;
64789;SDS011;51223;51.816;5.862;2022-08-01T08:22:32;0.15;;;0.15;;
64789;SDS011;51223;51.816;5.862;2022-08-01T08:24:59;0.40;;;0.40;;
64789;SDS011;51223;51.816;5.862;2022-08-01T08:27:25;0.45;;;0.45;;
64789;SDS011;51223;51.816;5.862;2022-08-01T08:30:01;0.30;;;0.30;;
64789;SDS011;51223;51.816;5.862;2022-08-01T08:32:33;0.82;;;0.50;;
64789;SDS011;51223;51.816;5.862;2022-08-01T08:35:00;0.73;;;0.50;;
64789;SDS011;51223;51.816;5.862;2022-08-01T08:37:28;0.60;;;0.60;;
64789;SDS011;51223;51.816;5.862;2022-08-01T08:40:04;0.45;;;0.45;;
64789;SDS011;51223;51.816;5.862;2022-08-01T08:42:30;0.60;;;0.60;;
64789;SDS011;51223;51.816;5.862;2022-08-01T08:44:56;0.98;;;0.60;;
64789;SDS011;51223;51.816;5.862;2022-08-01T08:47:30;2.17;;;0.70;;
64789;SDS011;51223;51.816;5.862;2022-08-01T08:49:58;1.10;;;0.60;;
64789;SDS011;51223;51.816;5.862;2022-08-01T08:52:27;0.77;;;0.68;;
64789;SDS011;51223;51.816;5.862;2022-08-01T08:54:56;0.68;;;0.68;;
64789;SDS011;51223;51.816;5.862;2022-08-01T08:57:23;0.90;;;0.70;;
64789;SDS011;51223;51.816;5.862;2022-08-01T08:59:49;0.45;;;0.40;;
64789;SDS011;51223;51.816;5.862;2022-08-01T09:02:17;0.50;;;0.50;;
64789;SDS011;51223;51.816;5.862;2022-08-01T09:04:50;2.05;;;0.75;;
64789;SDS011;51223;51.816;5.862;2022-08-01T09:07:16;0.60;;;0.60;;
64789;SDS011;51223;51.816;5.862;2022-08-01T09:09:42;0.75;;;0.57;;
64789;SDS011;51223;51.816;5.862;2022-08-01T09:12:15;0.52;;;0.50;;
64789;SDS011;51223;51.816;5.862;2022-08-01T09:14:46;1.52;;;0.90;;
64789;SDS011;51223;51.816;5.862;2022-08-01T09:17:22;0.50;;;0.45;;
64789;SDS011;51223;51.816;5.862;2022-08-01T09:19:52;0.77;;;0.73;;
64789;SDS011;51223;51.816;5.862;2022-08-01T09:22:23;1.58;;;0.63;;
64789;SDS011;51223;51.816;5.862;2022-08-01T09:25:00;1.08;;;0.43;;
64789;SDS011;51223;51.816;5.862;2022-08-01T09:27:33;0.70;;;0.50;;
64789;SDS011;51223;51.816;5.862;2022-08-01T09:30:15;0.98;;;0.65;;
64789;SDS011;51223;51.816;5.862;2022-08-01T09:44:01;0.95;;;0.70;;
64789;SDS011;51223;51.816;5.862;2022-08-01T09:46:49;0.45;;;0.40;;
64789;SDS011;51223;51.816;5.862;2022-08-01T09:49:40;2.67;;;0.68;;
64789;SDS011;51223;51.816;5.862;2022-08-01T09:55:05;1.05;;;0.60;;
64789;SDS011;51223;51.816;5.862;2022-08-01T09:57:33;0.47;;;0.43;;
64789;SDS011;51223;51.816;5.862;2022-08-01T10:00:57;0.63;;;0.50;;
64789;SDS011;51223;51.816;5.862;2022-08-01T10:06:38;0.10;;;0.10;;
64789;SDS011;51223;51.816;5.862;2022-08-01T10:09:13;0.77;;;0.60;;
64789;SDS011;51223;51.816;5.862;2022-08-01T10:12:02;1.27;;;0.70;;
64789;SDS011;51223;51.816;5.862;2022-08-01T10:14:37;0.95;;;0.70;;
64789;SDS011;51223;51.816;5.862;2022-08-01T10:17:19;0.35;;;0.35;;
64789;SDS011;51223;51.816;5.862;2022-08-01T10:19:48;0.30;;;0.30;;
64789;SDS011;51223;51.816;5.862;2022-08-01T10:22:27;0.68;;;0.30;;
64789;SDS011;51223;51.816;5.862;2022-08-01T10:24:56;0.50;;;0.50;;
64789;SDS011;51223;51.816;5.862;2022-08-01T10:27:27;0.63;;;0.40;;
64789;SDS011;51223;51.816;5.862;2022-08-01T10:30:23;1.20;;;0.60;;
64789;SDS011;51223;51.816;5.862;2022-08-01T10:32:52;0.85;;;0.50;;
64789;SDS011;51223;51.816;5.862;2022-08-01T10:35:23;2.15;;;0.57;;
64789;SDS011;51223;51.816;5.862;2022-08-01T10:37:59;0.30;;;0.30;;
64789;SDS011;51223;51.816;5.862;2022-08-01T10:40:32;0.35;;;0.35;;
64789;SDS011;51223;51.816;5.862;2022-08-01T10:43:01;2.20;;;0.50;;
64789;SDS011;51223;51.816;5.862;2022-08-01T10:45:29;0.85;;;0.60;;
64789;SDS011;51223;51.816;5.862;2022-08-01T10:55:46;0.90;;;0.30;;
64789;SDS011;51223;51.816;5.862;2022-08-01T10:58:29;0.82;;;0.82;;
64789;SDS011;51223;51.816;5.862;2022-08-01T11:04:31;0.80;;;0.65;;
64789;SDS011;51223;51.816;5.862;2022-08-01T11:07:24;0.30;;;0.30;;
64789;SDS011;51223;51.816;5.862;2022-08-01T11:10:16;3.53;;;1.00;;
64789;SDS011;51223;51.816;5.862;2022-08-01T11:12:55;4.20;;;0.60;;
64789;SDS011;51223;51.816;5.862;2022-08-01T11:15:26;0.90;;;0.60;;
64789;SDS011;51223;51.816;5.862;2022-08-01T11:17:59;2.92;;;0.52;;
64789;SDS011;51223;51.816;5.862;2022-08-01T11:20:34;2.25;;;0.47;;
64789;SDS011;51223;51.816;5.862;2022-08-01T11:30:41;0.22;;;0.22;;
64789;SDS011;51223;51.816;5.862;2022-08-01T11:33:15;3.28;;;0.43;;
64789;SDS011;51223;51.816;5.862;2022-08-01T11:36:16;2.58;;;0.98;;
64789;SDS011;51223;51.816;5.862;2022-08-01T11:38:37;2.20;;;0.80;;
64789;SDS011;51223;51.816;5.862;2022-08-01T11:41:13;3.10;;;0.90;;
64789;SDS011;51223;51.816;5.862;2022-08-01T11:44:16;0.88;;;0.75;;
64789;SDS011;51223;51.816;5.862;2022-08-01T11:54:52;1.02;;;0.88;;
64789;SDS011;51223;51.816;5.862;2022-08-01T11:59:50;4.25;;;1.10;;
64789;SDS011;51223;51.816;5.862;2022-08-01T12:02:27;1.85;;;1.13;;
64789;SDS011;51223;51.816;5.862;2022-08-01T12:05:02;1.83;;;1.08;;
64789;SDS011;51223;51.816;5.862;2022-08-01T12:07:33;0.82;;;0.82;;
64789;SDS011;51223;51.816;5.862;2022-08-01T12:13:02;1.27;;;0.75;;
64789;SDS011;51223;51.816;5.862;2022-08-01T12:15:31;2.85;;;1.40;;
64789;SDS011;51223;51.816;5.862;2022-08-01T12:17:59;4.22;;;1.15;;
64789;SDS011;51223;51.816;5.862;2022-08-01T12:20:28;0.60;;;0.50;;
64789;SDS011;51223;51.816;5.862;2022-08-01T12:23:16;2.00;;;0.73;;
64789;SDS011;51223;51.816;5.862;2022-08-01T12:26:03;2.28;;;0.80;;
64789;SDS011;51223;51.816;5.862;2022-08-01T12:28:38;3.50;;;1.80;;
64789;SDS011;51223;51.816;5.862;2022-08-01T12:31:07;1.73;;;1.35;;
64789;SDS011;51223;51.816;5.862;2022-08-01T12:33:36;5.70;;;1.02;;
64789;SDS011;51223;51.816;5.862;2022-08-01T12:36:05;1.88;;;1.02;;
64789;SDS011;51223;51.816;5.862;2022-08-01T12:41:29;1.20;;;0.80;;
64789;SDS011;51223;51.816;5.862;2022-08-01T12:47:22;0.75;;;0.70;;
64789;SDS011;51223;51.816;5.862;2022-08-01T12:50:02;1.08;;;0.80;;
64789;SDS011;51223;51.816;5.862;2022-08-01T12:52:49;3.28;;;0.98;;
64789;SDS011;51223;51.816;5.862;2022-08-01T12:55:45;2.75;;;0.77;;
64789;SDS011;51223;51.816;5.862;2022-08-01T12:59:04;1.02;;;0.80;;
64789;SDS011;51223;51.816;5.862;2022-08-01T13:02:07;2.50;;;1.05;;
64789;SDS011;51223;51.816;5.862;2022-08-01T13:07:59;2.17;;;1.17;;
64789;SDS011;51223;51.816;5.862;2022-08-01T13:10:34;1.98;;;0.93;;
64789;SDS011;51223;51.816;5.862;2022-08-01T13:13:06;1.98;;;1.38;;
64789;SDS011;51223;51.816;5.862;2022-08-01T13:19:14;2.92;;;0.85;;
64789;SDS011;51223;51.816;5.862;2022-08-01T14:15:15;2.17;;;1.00;;
64789;SDS011;51223;51.816;5.862;2022-08-01T14:40:39;3.28;;;1.30;;
64789;SDS011;51223;51.816;5.862;2022-08-01T14:46:45;4.40;;;0.90;;
64789;SDS011;51223;51.816;5.862;2022-08-01T15:19:13;3.92;;;1.20;;
64789;SDS011;51223;51.816;5.862;2022-08-01T15:53:03;0.50;;;0.50;;
64789;SDS011;51223;51.816;5.862;2022-08-01T15:55:30;2.72;;;0.88;;
64789;SDS011;51223;51.816;5.862;2022-08-01T15:58:02;2.85;;;1.13;;
64789;SDS011;51223;51.816;5.862;2022-08-01T16:00:28;0.63;;;0.60;;
64789;SDS011;51223;51.816;5.862;2022-08-01T16:02:57;3.35;;;0.80;;
64789;SDS011;51223;51.816;5.862;2022-08-01T16:05:23;2.55;;;0.68;;
64789;SDS011;51223;51.816;5.862;2022-08-01T16:07:49;2.42;;;0.70;;
64789;SDS011;51223;51.816;5.862;2022-08-01T16:10:18;1.05;;;0.70;;
64789;SDS011;51223;51.816;5.862;2022-08-01T16:12:43;1.13;;;0.73;;
64789;SDS011;51223;51.816;5.862;2022-08-01T16:15:09;4.32;;;1.05;;
64789;SDS011;51223;51.816;5.862;2022-08-01T16:17:35;2.22;;;1.10;;
64789;SDS011;51223;51.816;5.862;2022-08-01T16:20:04;1.65;;;0.68;;
64789;SDS011;51223;51.816;5.862;2022-08-01T16:22:31;0.63;;;0.57;;
64789;SDS011;51223;51.816;5.862;2022-08-01T16:24:59;1.25;;;1.00;;
64789;SDS011;51223;51.816;5.862;2022-08-01T16:27:25;2.70;;;0.95;;
64789;SDS011;51223;51.816;5.862;2022-08-01T16:29:52;2.58;;;0.45;;
64789;SDS011;51223;51.816;5.862;2022-08-01T16:32:17;0.43;;;0.40;;
64789;SDS011;51223;51.816;5.862;2022-08-01T16:34:43;2.20;;;0.73;;
64789;SDS011;51223;51.816;5.862;2022-08-01T16:37:09;1.73;;;0.68;;
64789;SDS011;51223;51.816;5.862;2022-08-01T16:39:37;2.10;;;0.80;;
64789;SDS011;51223;51.816;5.862;2022-08-01T16:42:03;4.43;;;0.68;;
64789;SDS011;51223;51.816;5.862;2022-08-01T16:44:32;2.25;;;0.93;;
64789;SDS011;51223;51.816;5.862;2022-08-01T16:46:58;1.92;;;0.93;;
64789;SDS011;51223;51.816;5.862;2022-08-01T16:49:26;0.45;;;0.45;;
64789;SDS011;51223;51.816;5.862;2022-08-01T16:51:51;1.20;;;0.47;;
64789;SDS011;51223;51.816;5.862;2022-08-01T16:54:17;1.15;;;0.50;;
64789;SDS011;51223;51.816;5.862;2022-08-01T16:56:46;0.95;;;0.60;;
64789;SDS011;51223;51.816;5.862;2022-08-01T16:59:11;1.00;;;0.65;;
64789;SDS011;51223;51.816;5.862;2022-08-01T17:01:40;0.50;;;0.50;;
64789;SDS011;51223;51.816;5.862;2022-08-01T17:04:06;0.68;;;0.50;;
64789;SDS011;51223;51.816;5.862;2022-08-01T17:06:32;1.75;;;0.63;;
64789;SDS011;51223;51.816;5.862;2022-08-01T17:08:57;0.63;;;0.40;;
64789;SDS011;51223;51.816;5.862;2022-08-01T17:11:23;0.52;;;0.47;;
64789;SDS011;51223;51.816;5.862;2022-08-01T17:13:51;3.50;;;1.50;;
64789;SDS011;51223;51.816;5.862;2022-08-01T17:16:17;0.75;;;0.75;;
64789;SDS011;51223;51.816;5.862;2022-08-01T17:18:43;0.10;;;0.10;;
64789;SDS011;51223;51.816;5.862;2022-08-01T17:21:09;1.23;;;0.57;;
64789;SDS011;51223;51.816;5.862;2022-08-01T17:23:37;0.50;;;0.50;;
64789;SDS011;51223;51.816;5.862;2022-08-01T17:26:03;1.65;;;0.82;;
64789;SDS011;51223;51.816;5.862;2022-08-01T17:28:29;0.20;;;0.20;;
64789;SDS011;51223;51.816;5.862;2022-08-01T17:30:55;1.33;;;0.40;;
64789;SDS011;51223;51.816;5.862;2022-08-01T17:33:20;0.98;;;0.63;;
64789;SDS011;51223;51.816;5.862;2022-08-01T17:35:46;3.00;;;0.82;;
64789;SDS011;51223;51.816;5.862;2022-08-01T17:38:15;4.30;;;0.80;;
64789;SDS011;51223;51.816;5.862;2022-08-01T17:40:40;1.85;;;0.65;;
64789;SDS011;51223;51.816;5.862;2022-08-01T17:43:07;0.43;;;0.43;;
64789;SDS011;51223;51.816;5.862;2022-08-01T17:45:33;0.30;;;0.30;;
64789;SDS011;51223;51.816;5.862;2022-08-01T17:47:59;3.10;;;1.00;;
64789;SDS011;51223;51.816;5.862;2022-08-01T17:50:24;1.13;;;0.38;;
64789;SDS011;51223;51.816;5.862;2022-08-01T17:52:51;0.75;;;0.55;;
64789;SDS011;51223;51.816;5.862;2022-08-01T17:55:19;2.13;;;0.88;;
64789;SDS011;51223;51.816;5.862;2022-08-01T17:57:45;1.30;;;0.52;;
64789;SDS011;51223;51.816;5.862;2022-08-01T18:00:11;0.93;;;0.47;;
64789;SDS011;51223;51.816;5.862;2022-08-01T18:02:40;3.25;;;0.50;;
64789;SDS011;51223;51.816;5.862;2022-08-01T18:05:06;2.63;;;0.52;;
64789;SDS011;51223;51.816;5.862;2022-08-01T18:07:35;1.15;;;0.38;;
64789;SDS011;51223;51.816;5.862;2022-08-01T18:10:01;0.65;;;0.40;;
64789;SDS011;51223;51.816;5.862;2022-08-01T18:12:26;0.30;;;0.30;;
64789;SDS011;51223;51.816;5.862;2022-08-01T18:14:52;0.30;;;0.30;;
64789;SDS011;51223;51.816;5.862;2022-08-01T18:17:19;2.50;;;0.38;;
64789;SDS011;51223;51.816;5.862;2022-08-01T18:19:45;1.90;;;0.50;;
64789;SDS011;51223;51.816;5.862;2022-08-01T18:22:13;2.65;;;0.82;;
64789;SDS011;51223;51.816;5.862;2022-08-01T18:24:39;1.80;;;0.50;;
64789;SDS011;51223;51.816;5.862;2022-08-01T18:27:04;1.23;;;0.57;;
64789;SDS011;51223;51.816;5.862;2022-08-01T18:29:30;0.20;;;0.20;;
64789;SDS011;51223;51.816;5.862;2022-08-01T18:31:56;0.45;;;0.30;;
64789;SDS011;51223;51.816;5.862;2022-08-01T18:34:23;1.63;;;0.40;;
64789;SDS011;51223;51.816;5.862;2022-08-01T18:36:49;0.20;;;0.20;;
64789;SDS011;51223;51.816;5.862;2022-08-01T18:39:15;2.92;;;0.50;;
64789;SDS011;51223;51.816;5.862;2022-08-01T18:41:41;0.70;;;0.28;;
64789;SDS011;51223;51.816;5.862;2022-08-01T18:44:07;2.85;;;0.68;;
64789;SDS011;51223;51.816;5.862;2022-08-01T18:46:33;0.25;;;0.25;;
64789;SDS011;51223;51.816;5.862;2022-08-01T18:48:59;1.20;;;0.63;;
64789;SDS011;51223;51.816;5.862;2022-08-01T18:51:25;0.85;;;0.60;;